Time;durP1;ratioP1;P1;durP2;ratioP2;P2;SDS_P1;SDS_P2;PMS_P1;PMS_P2;Temp;Humidity;BMP_temperature;BMP_pressure;BME280_temperature;BME280_humidity;BME280_pressure;Samples;Min_cycle;Max_cycle;Signal;HPM_P1;HPM_P2
2023/05/21 00:01:39;;;;;;;13.43;11.35;;;;;;;;;;5013341;28;20570;-52
2023/05/21 00:04:08;;;;;;;13.98;11.10;;;;;;;;;;5010753;28;20201;-52
2023/05/21 00:06:34;;;;;;;13.77;11.45;;;;;;;;;;5012179;28;20193;-52
2023/05/21 00:09:02;;;;;;;12.48;10.07;;;;;;;;;;5010252;28;20256;-51
2023/05/21 00:11:28;;;;;;;12.70;10.25;;;;;;;;;;5007812;28;20209;-51
2023/05/21 00:13:53;;;;;;;12.32;10.35;;;;;;;;;;5010690;28;20572;-52
2023/05/21 00:16:19;;;;;;;12.07;10.25;;;;;;;;;;5012285;28;20223;-52
2023/05/21 00:18:48;;;;;;;11.50;9.55;;;;;;;;;;5012295;28;20186;-51
2023/05/21 00:21:16;;;;;;;12.38;10.27;;;;;;;;;;5014545;28;20188;-52
2023/05/21 00:23:42;;;;;;;11.68;10.48;;;;;;;;;;5004387;28;20230;-51
2023/05/21 00:26:07;;;;;;;14.15;10.73;;;;;;;;;;5016274;28;20185;-51
2023/05/21 00:28:33;;;;;;;12.45;10.35;;;;;;;;;;5013239;28;20248;-52
2023/05/21 00:31:00;;;;;;;12.80;10.27;;;;;;;;;;5011796;28;20193;-52
2023/05/21 00:33:27;;;;;;;12.85;10.13;;;;;;;;;;5006061;28;20208;-51
2023/05/21 00:35:53;;;;;;;13.13;10.85;;;;;;;;;;5012115;28;20267;-52
2023/05/21 00:38:20;;;;;;;12.10;10.32;;;;;;;;;;5022698;28;20323;-51
2023/05/21 00:40:46;;;;;;;12.43;10.25;;;;;;;;;;5012168;28;20185;-51
2023/05/21 00:43:13;;;;;;;11.02;9.73;;;;;;;;;;5020375;28;20476;-51
2023/05/21 00:45:40;;;;;;;11.55;9.57;;;;;;;;;;5012992;28;20525;-51
2023/05/21 00:48:07;;;;;;;11.63;9.50;;;;;;;;;;5014440;28;20510;-51
2023/05/21 00:50:33;;;;;;;12.13;10.25;;;;;;;;;;5020480;28;20563;-51
2023/05/21 00:52:59;;;;;;;12.63;10.20;;;;;;;;;;5007805;28;20189;-51
2023/05/21 00:55:25;;;;;;;13.82;10.70;;;;;;;;;;5010848;28;20586;-52
2023/05/21 00:57:51;;;;;;;12.27;10.40;;;;;;;;;;5017253;28;20215;-51
2023/05/21 01:00:17;;;;;;;12.35;10.05;;;;;;;;;;5015991;28;20220;-52
2023/05/21 01:02:44;;;;;;;11.52;9.80;;;;;;;;;;5016907;28;20226;-51
2023/05/21 01:05:10;;;;;;;12.07;9.73;;;;;;;;;;5032837;28;20184;-52
2023/05/21 01:07:38;;;;;;;14.07;10.25;;;;;;;;;;5030234;28;20192;-51
2023/05/21 01:10:06;;;;;;;12.50;9.98;;;;;;;;;;5016253;28;20180;-51
2023/05/21 01:12:32;;;;;;;10.98;9.57;;;;;;;;;;5017880;28;20617;-51
2023/05/21 01:15:02;;;;;;;11.13;9.52;;;;;;;;;;5012199;28;20193;-52
2023/05/21 01:17:30;;;;;;;11.90;10.00;;;;;;;;;;5015221;28;20292;-52
2023/05/21 01:19:57;;;;;;;13.65;9.77;;;;;;;;;;5014832;28;20558;-51
2023/05/21 01:22:24;;;;;;;13.65;10.65;;;;;;;;;;5028642;28;20448;-51
2023/05/21 01:24:51;;;;;;;12.48;9.98;;;;;;;;;;5013378;28;20216;-52
2023/05/21 01:27:17;;;;;;;12.35;9.77;;;;;;;;;;5015869;28;20267;-51
2023/05/21 01:29:43;;;;;;;11.88;10.32;;;;;;;;;;5015917;28;20319;-52
2023/05/21 01:32:20;;;;;;;14.63;11.00;;;;;;;;;;5012194;28;20177;-52
2023/05/21 01:34:52;;;;;;;14.27;10.63;;;;;;;;;;5014198;28;20196;-52
2023/05/21 01:37:25;;;;;;;12.98;10.75;;;;;;;;;;5010320;28;20200;-52
2023/05/21 01:40:00;;;;;;;14.73;10.43;;;;;;;;;;5015235;28;20184;-52
2023/05/21 01:42:28;;;;;;;12.90;10.77;;;;;;;;;;5017392;28;20181;-52
2023/05/21 01:44:55;;;;;;;12.30;10.15;;;;;;;;;;5014832;28;20201;-51
2023/05/21 01:47:22;;;;;;;13.50;11.02;;;;;;;;;;5015467;28;20268;-51
2023/05/21 01:49:49;;;;;;;12.70;10.77;;;;;;;;;;5010396;28;20610;-51
2023/05/21 01:52:16;;;;;;;12.30;10.57;;;;;;;;;;5011908;28;20223;-52
2023/05/21 01:54:41;;;;;;;13.48;10.98;;;;;;;;;;5021564;28;20179;-52
2023/05/21 01:57:07;;;;;;;13.80;10.88;;;;;;;;;;5018679;28;20187;-52
2023/05/21 01:59:35;;;;;;;13.23;11.25;;;;;;;;;;5015476;28;20180;-52
2023/05/21 02:02:01;;;;;;;14.43;11.07;;;;;;;;;;5009348;28;20185;-52
2023/05/21 02:04:27;;;;;;;13.32;10.93;;;;;;;;;;5016929;28;20283;-52
2023/05/21 02:06:53;;;;;;;13.13;10.20;;;;;;;;;;5016725;28;20345;-52
2023/05/21 02:09:19;;;;;;;14.52;11.63;;;;;;;;;;5014232;28;20198;-51
2023/05/21 02:11:45;;;;;;;15.02;11.52;;;;;;;;;;5015557;28;20219;-52
2023/05/21 02:14:12;;;;;;;11.60;10.40;;;;;;;;;;5017388;28;20191;-52
2023/05/21 02:16:38;;;;;;;12.63;11.10;;;;;;;;;;5015120;28;20183;-51
2023/05/21 02:19:05;;;;;;;13.38;11.50;;;;;;;;;;5014336;28;20460;-52
2023/05/21 02:21:31;;;;;;;12.32;10.27;;;;;;;;;;5014698;28;20182;-52
2023/05/21 02:23:57;;;;;;;12.48;10.63;;;;;;;;;;5016537;28;20200;-52
2023/05/21 02:26:23;;;;;;;14.30;11.63;;;;;;;;;;5016379;28;20226;-52
2023/05/21 02:28:49;;;;;;;14.60;11.25;;;;;;;;;;5016410;28;20181;-52
2023/05/21 02:31:14;;;;;;;16.27;11.38;;;;;;;;;;5012906;28;20304;-52
2023/05/21 02:33:41;;;;;;;12.07;10.77;;;;;;;;;;5011338;28;20203;-52
2023/05/21 02:36:14;;;;;;;13.05;11.40;;;;;;;;;;5013320;28;20295;-52
2023/05/21 02:38:42;;;;;;;12.55;10.80;;;;;;;;;;5015923;28;20200;-52
2023/05/21 02:41:08;;;;;;;14.60;11.05;;;;;;;;;;5015057;28;20243;-51
2023/05/21 02:43:34;;;;;;;12.50;11.20;;;;;;;;;;5010322;28;20580;-52
2023/05/21 02:45:59;;;;;;;13.75;10.70;;;;;;;;;;5010589;28;20201;-52
2023/05/21 02:48:25;;;;;;;12.43;10.77;;;;;;;;;;5007073;28;20179;-53
2023/05/21 02:50:51;;;;;;;12.35;10.85;;;;;;;;;;5005011;28;20185;-52
2023/05/21 02:53:17;;;;;;;13.15;11.73;;;;;;;;;;5013670;28;20189;-52
2023/05/21 02:55:43;;;;;;;14.07;11.30;;;;;;;;;;5009835;28;20201;-52
2023/05/21 02:58:12;;;;;;;12.32;10.18;;;;;;;;;;5024343;28;20180;-52
2023/05/21 03:00:38;;;;;;;16.13;10.75;;;;;;;;;;5014974;28;20196;-51
2023/05/21 03:03:04;;;;;;;12.20;10.52;;;;;;;;;;5014769;28;20528;-52
2023/05/21 03:05:30;;;;;;;14.35;10.75;;;;;;;;;;5015344;28;20220;-52
2023/05/21 03:07:55;;;;;;;16.35;11.50;;;;;;;;;;5012812;28;20263;-52
2023/05/21 03:10:21;;;;;;;13.75;10.77;;;;;;;;;;5014026;28;20616;-52
2023/05/21 03:12:48;;;;;;;14.63;10.55;;;;;;;;;;5014072;28;20238;-52
2023/05/21 03:15:14;;;;;;;15.95;11.32;;;;;;;;;;5016464;28;20184;-52
2023/05/21 03:17:43;;;;;;;12.05;10.30;;;;;;;;;;5038632;28;20228;-52
2023/05/21 03:20:15;;;;;;;12.88;10.60;;;;;;;;;;5012016;28;20196;-52
2023/05/21 03:22:41;;;;;;;13.27;10.27;;;;;;;;;;5030576;28;20516;-52
2023/05/21 03:25:08;;;;;;;13.68;10.73;;;;;;;;;;5013762;28;20583;-52
2023/05/21 03:27:33;;;;;;;12.48;10.40;;;;;;;;;;5010756;28;20172;-52
2023/05/21 03:29:59;;;;;;;12.63;10.05;;;;;;;;;;5013347;28;20184;-52
2023/05/21 03:32:25;;;;;;;12.68;9.55;;;;;;;;;;5015082;28;20208;-52
2023/05/21 03:34:51;;;;;;;11.75;9.90;;;;;;;;;;5008474;28;20258;-52
2023/05/21 03:37:17;;;;;;;11.40;9.70;;;;;;;;;;5014785;28;20180;-52
2023/05/21 03:39:43;;;;;;;11.77;9.52;;;;;;;;;;5014703;28;20199;-52
2023/05/21 03:42:09;;;;;;;10.48;9.32;;;;;;;;;;5010698;28;20184;-52
2023/05/21 03:44:35;;;;;;;11.32;9.55;;;;;;;;;;5010911;28;20291;-52
2023/05/21 03:47:01;;;;;;;12.65;9.68;;;;;;;;;;5014855;28;20318;-52
2023/05/21 03:49:27;;;;;;;11.10;9.40;;;;;;;;;;5013286;28;20184;-52
2023/05/21 03:51:53;;;;;;;10.73;9.63;;;;;;;;;;5013989;28;20180;-52
2023/05/21 03:54:19;;;;;;;11.00;9.38;;;;;;;;;;5015279;28;20599;-52
2023/05/21 03:56:45;;;;;;;11.80;10.00;;;;;;;;;;5006459;28;20173;-52
2023/05/21 03:59:10;;;;;;;11.20;9.60;;;;;;;;;;5014460;28;20188;-51
2023/05/21 04:01:37;;;;;;;11.73;9.88;;;;;;;;;;5013357;28;20560;-52
2023/05/21 04:04:03;;;;;;;11.90;10.25;;;;;;;;;;5014652;28;20196;-52
2023/05/21 04:06:29;;;;;;;13.07;10.18;;;;;;;;;;5014837;28;20176;-52
2023/05/21 04:08:55;;;;;;;10.60;9.13;;;;;;;;;;5013500;28;20177;-52
2023/05/21 04:11:21;;;;;;;12.38;10.35;;;;;;;;;;5014319;28;20172;-52
2023/05/21 04:13:47;;;;;;;11.68;10.05;;;;;;;;;;5011625;28;20240;-52
2023/05/21 04:16:17;;;;;;;11.98;9.80;;;;;;;;;;5014129;28;20188;-52
2023/05/21 04:18:43;;;;;;;12.90;10.73;;;;;;;;;;5014415;28;20214;-52
2023/05/21 04:21:09;;;;;;;11.50;9.98;;;;;;;;;;5018115;28;20204;-52
2023/05/21 04:23:35;;;;;;;12.45;10.27;;;;;;;;;;5009914;28;20216;-52
2023/05/21 04:26:02;;;;;;;12.38;10.20;;;;;;;;;;5017405;28;20223;-52
2023/05/21 04:28:28;;;;;;;11.68;10.05;;;;;;;;;;5016639;28;20204;-52
2023/05/21 04:30:55;;;;;;;12.82;10.32;;;;;;;;;;5016095;28;20176;-51
2023/05/21 04:33:21;;;;;;;13.35;9.85;;;;;;;;;;5010644;28;20540;-52
2023/05/21 04:35:48;;;;;;;13.70;10.65;;;;;;;;;;5018613;28;20192;-51
2023/05/21 04:38:18;;;;;;;17.33;10.27;;;;;;;;;;5015210;28;20271;-49
2023/05/21 04:40:44;;;;;;;14.18;10.63;;;;;;;;;;5010610;28;20259;-50
2023/05/21 04:43:10;;;;;;;12.98;9.95;;;;;;;;;;5016538;28;20539;-50
2023/05/21 04:45:36;;;;;;;15.23;10.02;;;;;;;;;;5007142;28;20252;-50
2023/05/21 04:48:02;;;;;;;14.43;10.52;;;;;;;;;;5014471;28;20336;-48
2023/05/21 04:50:29;;;;;;;13.45;10.32;;;;;;;;;;5013187;28;20212;-49
2023/05/21 04:52:55;;;;;;;15.27;10.95;;;;;;;;;;5015416;28;20168;-48
2023/05/21 04:55:21;;;;;;;14.05;10.80;;;;;;;;;;5016972;28;20243;-48
2023/05/21 04:57:47;;;;;;;17.42;10.98;;;;;;;;;;5015753;28;20204;-49
2023/05/21 05:00:13;;;;;;;21.98;10.80;;;;;;;;;;5015034;28;20191;-48
2023/05/21 05:02:39;;;;;;;13.90;10.85;;;;;;;;;;5006767;28;20181;-48
2023/05/21 05:05:05;;;;;;;12.32;10.27;;;;;;;;;;5006471;28;20240;-43
2023/05/21 05:07:31;;;;;;;14.20;10.32;;;;;;;;;;5013112;28;20424;-43
2023/05/21 05:09:57;;;;;;;15.85;9.73;;;;;;;;;;5014082;28;20195;-43
2023/05/21 05:12:23;;;;;;;18.80;10.45;;;;;;;;;;5016347;28;20192;-42
2023/05/21 05:14:49;;;;;;;13.18;9.82;;;;;;;;;;5016852;28;20188;-42
2023/05/21 05:17:15;;;;;;;16.50;10.63;;;;;;;;;;5013565;28;20193;-42
2023/05/21 05:19:41;;;;;;;13.38;9.82;;;;;;;;;;5009244;28;20208;-42
2023/05/21 05:22:07;;;;;;;14.10;11.40;;;;;;;;;;5014140;28;20196;-42
2023/05/21 05:24:33;;;;;;;12.50;10.30;;;;;;;;;;5013221;28;20601;-42
2023/05/21 05:26:59;;;;;;;16.27;11.00;;;;;;;;;;5017223;28;20211;-43
2023/05/21 05:29:25;;;;;;;13.45;10.63;;;;;;;;;;5016388;28;20196;-42
2023/05/21 05:31:51;;;;;;;12.50;10.32;;;;;;;;;;5018999;28;20184;-50
2023/05/21 05:34:18;;;;;;;16.15;11.80;;;;;;;;;;5014391;28;20182;-47
2023/05/21 05:36:44;;;;;;;20.25;10.25;;;;;;;;;;5007611;28;20184;-47
2023/05/21 05:39:10;;;;;;;14.55;11.07;;;;;;;;;;5015059;28;20184;-47
2023/05/21 05:41:36;;;;;;;16.55;11.05;;;;;;;;;;5016506;28;20203;-47
2023/05/21 05:44:02;;;;;;;14.65;10.85;;;;;;;;;;5015761;28;20284;-47
2023/05/21 05:46:28;;;;;;;15.85;10.70;;;;;;;;;;5016765;28;20256;-47
2023/05/21 05:48:54;;;;;;;14.70;10.60;;;;;;;;;;5011873;28;20170;-48
2023/05/21 05:51:20;;;;;;;14.98;11.10;;;;;;;;;;5010629;28;20234;-48
2023/05/21 05:53:46;;;;;;;15.63;11.25;;;;;;;;;;5015259;28;20207;-47
2023/05/21 05:56:12;;;;;;;13.07;10.43;;;;;;;;;;5016285;28;20238;-47
2023/05/21 05:58:38;;;;;;;17.17;9.98;;;;;;;;;;5016426;28;20208;-47
2023/05/21 06:01:04;;;;;;;14.18;10.93;;;;;;;;;;5014953;28;20491;-47
2023/05/21 06:03:30;;;;;;;12.20;9.80;;;;;;;;;;5013578;28;20200;-47
2023/05/21 06:05:56;;;;;;;13.32;11.40;;;;;;;;;;5009176;28;20180;-47
2023/05/21 06:08:22;;;;;;;14.02;10.30;;;;;;;;;;5013361;28;20195;-47
2023/05/21 06:10:48;;;;;;;12.77;10.38;;;;;;;;;;5009524;28;20437;-47
2023/05/21 06:13:14;;;;;;;15.88;10.48;;;;;;;;;;5014828;28;20472;-47
2023/05/21 06:15:41;;;;;;;14.60;10.30;;;;;;;;;;5016325;28;20185;-47
2023/05/21 06:18:07;;;;;;;13.68;10.18;;;;;;;;;;5008945;28;20181;-47
2023/05/21 06:20:33;;;;;;;12.48;10.75;;;;;;;;;;5014269;28;20192;-47
2023/05/21 06:22:59;;;;;;;12.88;10.65;;;;;;;;;;5011886;28;20222;-47
2023/05/21 06:25:25;;;;;;;12.13;10.13;;;;;;;;;;5011023;28;20672;-47
2023/05/21 06:27:51;;;;;;;11.52;10.07;;;;;;;;;;5012520;28;20200;-47
2023/05/21 06:30:17;;;;;;;15.35;11.18;;;;;;;;;;5013541;28;20180;-47
2023/05/21 06:32:43;;;;;;;14.25;10.80;;;;;;;;;;5013627;28;20456;-47
2023/05/21 06:35:09;;;;;;;14.88;11.85;;;;;;;;;;5015107;28;20212;-48
2023/05/21 06:37:35;;;;;;;16.00;13.27;;;;;;;;;;5013541;28;20307;-47
2023/05/21 06:40:01;;;;;;;16.00;11.52;;;;;;;;;;5004011;28;20177;-47
2023/05/21 06:42:27;;;;;;;17.00;12.38;;;;;;;;;;5007505;28;20181;-48
2023/05/21 06:44:53;;;;;;;13.25;10.95;;;;;;;;;;5009293;28;20197;-47
2023/05/21 06:47:19;;;;;;;13.35;11.18;;;;;;;;;;5009402;28;20203;-47
2023/05/21 06:49:45;;;;;;;14.65;11.90;;;;;;;;;;5007753;28;20176;-47
2023/05/21 06:52:11;;;;;;;14.38;11.05;;;;;;;;;;5028320;28;20184;-47
2023/05/21 06:54:37;;;;;;;14.57;11.13;;;;;;;;;;5001560;28;20209;-47
2023/05/21 06:57:03;;;;;;;15.55;11.85;;;;;;;;;;5009709;28;20250;-47
2023/05/21 06:59:29;;;;;;;15.57;11.45;;;;;;;;;;5002092;28;20197;-47
2023/05/21 07:01:55;;;;;;;12.40;10.90;;;;;;;;;;5002535;28;20184;-47
2023/05/21 07:04:21;;;;;;;11.18;9.68;;;;;;;;;;5010624;28;20234;-47
2023/05/21 07:06:47;;;;;;;16.27;9.70;;;;;;;;;;5005848;28;20184;-47
2023/05/21 07:09:13;;;;;;;12.18;10.27;;;;;;;;;;5002220;28;20191;-47
2023/05/21 07:11:39;;;;;;;11.70;9.48;;;;;;;;;;5010653;28;20172;-47
2023/05/21 07:14:05;;;;;;;14.88;11.10;;;;;;;;;;5014555;28;20184;-47
2023/05/21 07:16:31;;;;;;;11.82;9.20;;;;;;;;;;5025993;28;20194;-47
2023/05/21 07:18:57;;;;;;;10.98;9.23;;;;;;;;;;5010486;28;20456;-47
2023/05/21 07:21:23;;;;;;;12.02;9.55;;;;;;;;;;5006876;28;20585;-47
2023/05/21 07:23:49;;;;;;;12.05;9.55;;;;;;;;;;5004619;28;20235;-47
2023/05/21 07:26:15;;;;;;;10.45;8.88;;;;;;;;;;5023127;28;20216;-47
2023/05/21 07:28:41;;;;;;;12.93;8.88;;;;;;;;;;5014128;28;20203;-47
2023/05/21 07:31:07;;;;;;;12.85;9.02;;;;;;;;;;5007472;28;20189;-47
2023/05/21 07:33:33;;;;;;;10.93;8.70;;;;;;;;;;5010360;28;20180;-47
2023/05/21 07:35:59;;;;;;;11.18;8.43;;;;;;;;;;5013661;28;20590;-47
2023/05/21 07:38:25;;;;;;;10.48;8.70;;;;;;;;;;5010827;28;20177;-47
2023/05/21 07:40:51;;;;;;;12.25;8.50;;;;;;;;;;5010120;28;20191;-47
2023/05/21 07:43:17;;;;;;;11.60;8.30;;;;;;;;;;5029030;28;20176;-47
2023/05/21 07:45:43;;;;;;;9.55;8.43;;;;;;;;;;5006915;28;20200;-47
2023/05/21 07:48:10;;;;;;;10.75;8.55;;;;;;;;;;5013155;28;20264;-47
2023/05/21 07:50:36;;;;;;;9.48;7.72;;;;;;;;;;5012292;28;20207;-46
2023/05/21 07:53:02;;;;;;;10.00;8.30;;;;;;;;;;5007982;28;20564;-47
2023/05/21 07:55:28;;;;;;;12.02;8.57;;;;;;;;;;5016158;28;20192;-47
2023/05/21 07:57:55;;;;;;;11.60;7.80;;;;;;;;;;5020205;28;20568;-47
2023/05/21 08:00:23;;;;;;;10.70;8.38;;;;;;;;;;5005251;28;20184;-47
2023/05/21 08:02:49;;;;;;;10.30;8.13;;;;;;;;;;5011451;28;20508;-47
2023/05/21 08:05:18;;;;;;;8.68;7.45;;;;;;;;;;5013324;28;20343;-47
2023/05/21 08:07:45;;;;;;;8.93;7.60;;;;;;;;;;5006015;28;20188;-47
2023/05/21 08:10:11;;;;;;;11.00;7.90;;;;;;;;;;5010165;28;20604;-48
2023/05/21 08:12:36;;;;;;;11.65;7.80;;;;;;;;;;5013790;28;20188;-47
2023/05/21 08:15:02;;;;;;;9.82;7.75;;;;;;;;;;5008927;28;20200;-47
2023/05/21 08:17:28;;;;;;;8.18;7.38;;;;;;;;;;5011027;28;20198;-46
2023/05/21 08:19:54;;;;;;;9.07;7.50;;;;;;;;;;5002133;28;20587;-46
2023/05/21 08:22:20;;;;;;;10.60;7.68;;;;;;;;;;5012268;28;20188;-46
2023/05/21 08:24:47;;;;;;;9.85;7.22;;;;;;;;;;5007342;28;20459;-46
2023/05/21 08:27:14;;;;;;;10.88;8.05;;;;;;;;;;5006065;28;20184;-46
2023/05/21 08:29:41;;;;;;;11.05;7.95;;;;;;;;;;5014816;28;20184;-46
2023/05/21 08:32:08;;;;;;;10.68;7.53;;;;;;;;;;5021177;28;21059;-46
2023/05/21 08:34:34;;;;;;;10.63;7.55;;;;;;;;;;5030533;28;20214;-47
2023/05/21 08:37:00;;;;;;;11.07;7.38;;;;;;;;;;5004876;28;20215;-46
2023/05/21 08:39:26;;;;;;;10.50;7.90;;;;;;;;;;5006658;28;20220;-47
2023/05/21 08:41:56;;;;;;;9.50;7.55;;;;;;;;;;5005151;28;20480;-47
2023/05/21 08:44:25;;;;;;;8.60;7.00;;;;;;;;;;5009853;28;20230;-47
2023/05/21 08:46:52;;;;;;;9.95;7.65;;;;;;;;;;5007645;28;20264;-47
2023/05/21 08:49:21;;;;;;;11.25;7.28;;;;;;;;;;5009976;28;20188;-47
2023/05/21 08:51:49;;;;;;;11.35;7.28;;;;;;;;;;5007388;28;20262;-48
2023/05/21 08:54:14;;;;;;;11.35;7.45;;;;;;;;;;5012803;28;20200;-46
2023/05/21 08:56:44;;;;;;;9.85;6.57;;;;;;;;;;5010800;28;20275;-46
2023/05/21 08:59:10;;;;;;;8.82;6.85;;;;;;;;;;5006237;28;20195;-46
2023/05/21 09:01:37;;;;;;;10.30;6.97;;;;;;;;;;5010975;28;20184;-46
2023/05/21 09:04:03;;;;;;;8.93;6.97;;;;;;;;;;5009394;28;20196;-47
2023/05/21 09:06:32;;;;;;;10.32;7.32;;;;;;;;;;5012797;28;20208;-46
2023/05/21 09:09:04;;;;;;;9.85;7.30;;;;;;;;;;5013400;28;20425;-47
2023/05/21 09:11:30;;;;;;;9.90;7.18;;;;;;;;;;5013422;28;20184;-47
2023/05/21 09:13:59;;;;;;;8.00;6.78;;;;;;;;;;5029677;28;20188;-47
2023/05/21 09:16:25;;;;;;;9.27;7.28;;;;;;;;;;5015811;28;20181;-47
2023/05/21 09:18:51;;;;;;;7.43;6.60;;;;;;;;;;5010930;28;20191;-47
2023/05/21 09:21:24;;;;;;;10.77;7.05;;;;;;;;;;5007665;28;20600;-46
2023/05/21 09:23:54;;;;;;;9.85;7.30;;;;;;;;;;5014531;28;20646;-46
2023/05/21 09:26:22;;;;;;;11.18;7.38;;;;;;;;;;5013451;28;20192;-46
2023/05/21 09:28:48;;;;;;;8.98;7.35;;;;;;;;;;5015844;28;20168;-46
2023/05/21 09:31:14;;;;;;;7.72;6.75;;;;;;;;;;5015679;28;20188;-46
2023/05/21 09:33:46;;;;;;;12.13;6.88;;;;;;;;;;5014750;28;20188;-47
2023/05/21 09:36:12;;;;;;;8.73;7.30;;;;;;;;;;5013412;28;20195;-47
2023/05/21 09:38:38;;;;;;;11.70;7.32;;;;;;;;;;5010106;28;20188;-47
2023/05/21 09:41:05;;;;;;;11.43;6.93;;;;;;;;;;5006009;28;20186;-47
2023/05/21 09:43:31;;;;;;;9.30;7.25;;;;;;;;;;5014202;28;21043;-47
2023/05/21 09:45:57;;;;;;;12.63;7.20;;;;;;;;;;5016806;28;20612;-49
2023/05/21 09:48:36;;;;;;;8.77;7.22;;;;;;;;;;5010848;28;20165;-47
2023/05/21 09:51:15;;;;;;;10.23;7.07;;;;;;;;;;5017248;28;20180;-47
2023/05/21 09:53:47;;;;;;;11.88;8.00;;;;;;;;;;5008334;28;20572;-47
2023/05/21 09:56:13;;;;;;;10.85;7.35;;;;;;;;;;5028437;28;20208;-47
2023/05/21 09:58:39;;;;;;;16.55;6.85;;;;;;;;;;5008308;28;20264;-47
2023/05/21 10:01:07;;;;;;;14.35;7.25;;;;;;;;;;5013813;28;20180;-47
2023/05/21 10:03:37;;;;;;;13.90;7.47;;;;;;;;;;5014226;28;20292;-47
2023/05/21 10:06:04;;;;;;;9.65;6.72;;;;;;;;;;5013758;28;20191;-47
2023/05/21 10:08:32;;;;;;;8.68;6.72;;;;;;;;;;5012668;28;21536;-47
2023/05/21 10:10:58;;;;;;;9.35;6.80;;;;;;;;;;5010158;28;20443;-47
2023/05/21 10:13:25;;;;;;;9.00;7.00;;;;;;;;;;5010301;28;20189;-47
2023/05/21 10:15:55;;;;;;;9.95;7.40;;;;;;;;;;5012683;28;20185;-47
2023/05/21 10:18:21;;;;;;;12.73;6.90;;;;;;;;;;5004920;28;20181;-47
2023/05/21 10:20:47;;;;;;;11.20;7.90;;;;;;;;;;5007680;28;20244;-47
2023/05/21 10:23:13;;;;;;;13.07;7.80;;;;;;;;;;5009622;28;20180;-47
2023/05/21 10:25:40;;;;;;;14.95;10.25;;;;;;;;;;5009853;28;20177;-47
2023/05/21 10:28:06;;;;;;;11.55;7.95;;;;;;;;;;5009231;28;20581;-47
2023/05/21 10:30:32;;;;;;;11.45;7.70;;;;;;;;;;5012609;28;20194;-47
2023/05/21 10:33:01;;;;;;;11.60;7.68;;;;;;;;;;5008147;28;20263;-47
2023/05/21 10:35:27;;;;;;;14.90;8.10;;;;;;;;;;5011042;28;20200;-47
2023/05/21 10:37:53;;;;;;;15.57;7.55;;;;;;;;;;5016067;28;20189;-47
2023/05/21 10:40:19;;;;;;;11.95;7.10;;;;;;;;;;5028470;28;20414;-47
2023/05/21 10:43:04;;;;;;;11.65;7.47;;;;;;;;;;5009217;28;20181;-47
2023/05/21 10:45:47;;;;;;;12.60;6.95;;;;;;;;;;5012762;28;20218;-47
2023/05/21 10:48:22;;;;;;;12.55;7.40;;;;;;;;;;5011843;28;20184;-47
2023/05/21 10:51:07;;;;;;;10.48;6.57;;;;;;;;;;5009111;28;20230;-47
2023/05/21 10:53:37;;;;;;;9.73;6.45;;;;;;;;;;5014774;28;20191;-47
2023/05/21 10:56:21;;;;;;;8.57;6.70;;;;;;;;;;5014974;28;20338;-47
2023/05/21 10:59:06;;;;;;;11.07;6.90;;;;;;;;;;5011208;28;20575;-47
2023/05/21 11:01:34;;;;;;;9.30;6.40;;;;;;;;;;5011086;28;20219;-47
2023/05/21 11:04:00;;;;;;;8.43;6.50;;;;;;;;;;5010202;28;20652;-47
2023/05/21 11:06:26;;;;;;;13.25;6.40;;;;;;;;;;5015351;28;20579;-47
2023/05/21 11:08:53;;;;;;;11.65;6.57;;;;;;;;;;5016217;28;20177;-47
2023/05/21 11:11:37;;;;;;;8.55;7.05;;;;;;;;;;5013946;28;20535;-47
2023/05/21 11:14:23;;;;;;;7.57;5.57;;;;;;;;;;5009382;28;20878;-47
2023/05/21 11:16:50;;;;;;;6.57;5.63;;;;;;;;;;5011896;28;20238;-47
2023/05/21 11:19:19;;;;;;;8.45;5.88;;;;;;;;;;5008748;28;20192;-47
2023/05/21 11:21:51;;;;;;;7.75;5.65;;;;;;;;;;5008387;28;20206;-47
2023/05/21 11:24:20;;;;;;;7.15;6.03;;;;;;;;;;5011660;28;20258;-47
2023/05/21 11:26:50;;;;;;;11.68;5.82;;;;;;;;;;5014384;28;20199;-47
2023/05/21 11:29:16;;;;;;;7.32;5.93;;;;;;;;;;5008033;28;20451;-47
2023/05/21 11:31:46;;;;;;;7.28;6.07;;;;;;;;;;5008753;28;20230;-47
2023/05/21 11:34:15;;;;;;;9.73;6.40;;;;;;;;;;5013819;28;20561;-47
2023/05/21 11:36:41;;;;;;;8.48;6.40;;;;;;;;;;5014921;28;20176;-47
2023/05/21 11:39:09;;;;;;;6.35;5.60;;;;;;;;;;5014085;28;20580;-47
2023/05/21 11:41:53;;;;;;;8.27;6.25;;;;;;;;;;5011331;28;20181;-47
2023/05/21 11:44:41;;;;;;;8.73;6.60;;;;;;;;;;5012105;28;20238;-47
2023/05/21 11:47:07;;;;;;;6.90;6.03;;;;;;;;;;5014176;28;20172;-47
2023/05/21 11:49:34;;;;;;;10.82;6.22;;;;;;;;;;5014668;28;20172;-47
2023/05/21 11:52:00;;;;;;;9.30;6.07;;;;;;;;;;5013059;28;20188;-47
2023/05/21 11:54:26;;;;;;;13.65;6.53;;;;;;;;;;5012616;28;20232;-47
2023/05/21 11:56:54;;;;;;;8.45;6.13;;;;;;;;;;5006498;28;20204;-47
2023/05/21 11:59:20;;;;;;;9.85;6.50;;;;;;;;;;5011141;28;20201;-47
2023/05/21 12:01:46;;;;;;;7.47;5.50;;;;;;;;;;5007611;28;20467;-47
2023/05/21 12:04:12;;;;;;;15.73;6.07;;;;;;;;;;5012202;28;20208;-47
2023/05/21 12:06:41;;;;;;;7.63;6.10;;;;;;;;;;5011785;28;20572;-47
2023/05/21 12:09:08;;;;;;;6.95;6.25;;;;;;;;;;5013099;28;20191;-47
2023/05/21 12:11:34;;;;;;;12.07;6.22;;;;;;;;;;5009193;28;20577;-47
2023/05/21 12:14:00;;;;;;;9.70;6.50;;;;;;;;;;5009625;28;20549;-47
2023/05/21 12:16:26;;;;;;;8.55;6.70;;;;;;;;;;5012468;28;20720;-47
2023/05/21 12:18:53;;;;;;;10.32;6.15;;;;;;;;;;5015071;28;20612;-47
2023/05/21 12:21:19;;;;;;;7.50;6.35;;;;;;;;;;5009468;28;20269;-47
2023/05/21 12:23:45;;;;;;;8.65;6.00;;;;;;;;;;5011614;28;20292;-47
2023/05/21 12:26:12;;;;;;;7.35;6.15;;;;;;;;;;5013024;28;20574;-47
2023/05/21 12:28:39;;;;;;;6.20;5.60;;;;;;;;;;5024920;28;20190;-47
2023/05/21 12:31:04;;;;;;;6.68;6.05;;;;;;;;;;5013969;28;20180;-47
2023/05/21 12:33:34;;;;;;;6.65;5.93;;;;;;;;;;5011928;28;20177;-47
2023/05/21 12:36:02;;;;;;;8.98;5.72;;;;;;;;;;5014760;28;20181;-47
2023/05/21 12:38:31;;;;;;;9.40;6.13;;;;;;;;;;5005562;28;20220;-47
2023/05/21 12:41:03;;;;;;;8.25;6.07;;;;;;;;;;5014959;28;20556;-47
2023/05/21 12:43:32;;;;;;;8.90;5.65;;;;;;;;;;5032690;28;20575;-47
2023/05/21 12:45:58;;;;;;;6.75;5.63;;;;;;;;;;5016252;28;20259;-47
2023/05/21 12:48:24;;;;;;;8.10;6.25;;;;;;;;;;5016588;28;20259;-47
2023/05/21 12:50:51;;;;;;;6.35;5.75;;;;;;;;;;5013817;28;20187;-48
2023/05/21 12:53:17;;;;;;;6.93;5.90;;;;;;;;;;5015409;28;20180;-47
2023/05/21 12:55:43;;;;;;;7.03;5.90;;;;;;;;;;5017102;28;20254;-47
2023/05/21 12:58:13;;;;;;;7.22;6.05;;;;;;;;;;5013983;28;20552;-47
2023/05/21 13:00:41;;;;;;;8.38;6.35;;;;;;;;;;5014158;28;20211;-47
2023/05/21 13:03:07;;;;;;;8.82;6.00;;;;;;;;;;5004976;28;20439;-47
2023/05/21 13:05:33;;;;;;;7.50;5.78;;;;;;;;;;5014308;28;20254;-47
2023/05/21 13:07:59;;;;;;;7.30;6.00;;;;;;;;;;5015497;28;20188;-47
2023/05/21 13:10:25;;;;;;;8.95;5.93;;;;;;;;;;5017021;28;20575;-47
2023/05/21 13:12:51;;;;;;;6.82;6.13;;;;;;;;;;5016575;28;20180;-47
2023/05/21 13:15:17;;;;;;;7.72;6.18;;;;;;;;;;5012110;28;20173;-47
2023/05/21 13:17:43;;;;;;;9.10;6.68;;;;;;;;;;5013593;28;20227;-47
2023/05/21 13:20:10;;;;;;;7.18;6.25;;;;;;;;;;5011866;28;20279;-47
2023/05/21 13:22:46;;;;;;;7.25;6.50;;;;;;;;;;5015085;28;20184;-47
2023/05/21 13:25:23;;;;;;;7.38;6.57;;;;;;;;;;5016467;28;20233;-47
2023/05/21 13:27:50;;;;;;;7.28;5.93;;;;;;;;;;5008784;28;20179;-47
2023/05/21 13:30:16;;;;;;;7.72;6.85;;;;;;;;;;5029856;28;20184;-47
2023/05/21 13:32:42;;;;;;;8.38;6.82;;;;;;;;;;5010608;28;20189;-47
2023/05/21 13:35:11;;;;;;;8.70;6.95;;;;;;;;;;5012782;28;20569;-47
2023/05/21 13:37:38;;;;;;;7.97;6.68;;;;;;;;;;5013994;28;20287;-47
2023/05/21 13:40:05;;;;;;;8.38;6.70;;;;;;;;;;5015504;28;20200;-47
2023/05/21 13:42:31;;;;;;;8.35;6.35;;;;;;;;;;5014766;28;20190;-47
2023/05/21 13:44:57;;;;;;;9.05;7.20;;;;;;;;;;5016730;28;20433;-47
2023/05/21 13:47:24;;;;;;;8.43;7.40;;;;;;;;;;5023668;28;20173;-47
2023/05/21 13:49:51;;;;;;;8.65;7.15;;;;;;;;;;5016592;28;20172;-47
2023/05/21 13:52:17;;;;;;;9.30;7.30;;;;;;;;;;5011143;28;20181;-47
2023/05/21 13:54:43;;;;;;;8.57;7.20;;;;;;;;;;5015308;28;20481;-47
2023/05/21 13:57:09;;;;;;;9.57;6.57;;;;;;;;;;5016818;28;20188;-47
2023/05/21 13:59:35;;;;;;;8.05;6.80;;;;;;;;;;5017049;28;20463;-47
2023/05/21 14:02:01;;;;;;;8.10;6.97;;;;;;;;;;5015827;28;20192;-47
2023/05/21 14:04:27;;;;;;;10.45;7.43;;;;;;;;;;5016885;28;20235;-47
2023/05/21 14:06:53;;;;;;;8.88;7.28;;;;;;;;;;5015870;28;20208;-47
2023/05/21 14:09:19;;;;;;;10.32;6.53;;;;;;;;;;5016177;28;20177;-47
2023/05/21 14:11:45;;;;;;;8.05;7.03;;;;;;;;;;5006073;28;20260;-47
2023/05/21 14:14:17;;;;;;;9.88;7.35;;;;;;;;;;5009715;28;20172;-47
2023/05/21 14:16:43;;;;;;;8.30;6.88;;;;;;;;;;5013222;28;20267;-47
2023/05/21 14:19:09;;;;;;;8.70;6.80;;;;;;;;;;5004012;28;20267;-47
2023/05/21 14:21:35;;;;;;;8.15;6.93;;;;;;;;;;5007524;28;20181;-47
2023/05/21 14:24:01;;;;;;;8.60;7.10;;;;;;;;;;5006537;28;20200;-47
2023/05/21 14:26:28;;;;;;;7.95;6.85;;;;;;;;;;5015686;28;20191;-47
2023/05/21 14:28:54;;;;;;;9.23;7.35;;;;;;;;;;5015336;28;20288;-47